createdAt,value
2023-05-17T00:01:43.188Z,101567.06
2023-05-17T00:04:09.646Z,101570.59
2023-05-17T00:06:36.322Z,101569.78
2023-05-17T00:09:03.222Z,101568.63
2023-05-17T00:11:29.728Z,101568.75
2023-05-17T00:13:56.146Z,101563.31
2023-05-17T00:16:22.577Z,101564.84
2023-05-17T00:18:49.050Z,101575.09
2023-05-17T00:21:15.611Z,101575.44
2023-05-17T00:23:42.027Z,101576.69
2023-05-17T00:26:08.468Z,101576.50
2023-05-17T00:28:34.914Z,101576.28
2023-05-17T00:31:01.666Z,101573.78
2023-05-17T00:33:28.112Z,101578.75
2023-05-17T00:35:54.773Z,101572.47
2023-05-17T00:38:21.177Z,101581.19
2023-05-17T00:40:47.596Z,101577.13
2023-05-17T00:43:13.995Z,101575.31
2023-05-17T00:45:40.428Z,101582.69
2023-05-17T00:48:06.946Z,101573.06
2023-05-17T00:50:33.681Z,101575.00
2023-05-17T00:53:00.322Z,101577.38
2023-05-17T00:55:27.510Z,101573.97
2023-05-17T00:57:54.219Z,101567.81
2023-05-17T01:00:20.933Z,101563.28
2023-05-17T01:02:48.809Z,101569.00
2023-05-17T01:05:15.638Z,101567.66
2023-05-17T01:07:42.063Z,101568.28
2023-05-17T01:10:09.436Z,101575.25
2023-05-17T01:13:10.048Z,101572.09
2023-05-17T01:15:43.426Z,101568.47
2023-05-17T01:18:27.035Z,101568.50
2023-05-17T01:20:56.103Z,101568.75
2023-05-17T01:23:51.522Z,101574.06
2023-05-17T01:26:31.037Z,101572.94
2023-05-17T01:28:57.579Z,101569.88
2023-05-17T01:31:24.993Z,101565.53
2023-05-17T01:33:51.483Z,101568.84
2023-05-17T01:36:17.994Z,101568.28
2023-05-17T01:38:44.427Z,101574.38
2023-05-17T01:41:14.271Z,101570.56
2023-05-17T01:43:47.386Z,101581.38
2023-05-17T01:46:27.486Z,101580.28
2023-05-17T01:49:04.900Z,101577.75
2023-05-17T01:51:33.870Z,101587.88
2023-05-17T01:54:11.169Z,101587.25
2023-05-17T01:56:42.660Z,101600.09
2023-05-17T01:59:11.285Z,101599.28
2023-05-17T02:01:39.289Z,101596.63
2023-05-17T02:04:05.981Z,101602.06
2023-05-17T02:06:32.410Z,101603.56
2023-05-17T02:09:01.034Z,101593.78
2023-05-17T02:11:27.457Z,101607.63
2023-05-17T02:13:53.875Z,101611.91
2023-05-17T02:16:20.852Z,101611.66
2023-05-17T02:18:47.384Z,101606.00
2023-05-17T02:21:13.885Z,101599.72
2023-05-17T02:23:40.295Z,101603.03
2023-05-17T02:26:06.708Z,101600.03
2023-05-17T02:28:33.289Z,101603.38
2023-05-17T02:30:59.757Z,101607.59
2023-05-17T02:33:26.285Z,101612.06
2023-05-17T02:35:52.808Z,101613.84
2023-05-17T02:38:19.231Z,101613.53
2023-05-17T02:40:45.717Z,101614.72
2023-05-17T02:43:12.141Z,101621.59
2023-05-17T02:45:38.562Z,101614.78
2023-05-17T02:48:05.768Z,101625.72
2023-05-17T02:50:32.292Z,101631.81
2023-05-17T02:52:58.769Z,101632.56
2023-05-17T02:55:25.255Z,101636.53
2023-05-17T02:57:51.669Z,101629.22
2023-05-17T03:00:18.239Z,101636.66
2023-05-17T03:02:44.761Z,101628.47
2023-05-17T03:05:11.207Z,101634.38
2023-05-17T03:07:37.823Z,101633.47
2023-05-17T03:10:04.516Z,101645.94
2023-05-17T03:12:30.925Z,101645.38
2023-05-17T03:14:57.336Z,101642.41
2023-05-17T03:17:23.768Z,101655.94
2023-05-17T03:19:50.292Z,101645.78
2023-05-17T03:22:16.813Z,101654.91
2023-05-17T03:24:43.680Z,101652.59
2023-05-17T03:27:10.272Z,101649.44
2023-05-17T03:29:36.749Z,101653.16
2023-05-17T03:32:03.246Z,101651.06
2023-05-17T03:34:29.685Z,101657.16
2023-05-17T03:36:56.151Z,101665.34
2023-05-17T03:39:22.578Z,101661.13
2023-05-17T03:41:49.038Z,101665.03
2023-05-17T03:44:15.558Z,101668.81
2023-05-17T03:46:42.014Z,101672.63
2023-05-17T03:49:08.620Z,101672.56
2023-05-17T03:51:35.236Z,101675.47
2023-05-17T03:54:01.785Z,101680.22
2023-05-17T03:56:28.293Z,101684.47
2023-05-17T03:58:54.679Z,101689.63
2023-05-17T04:01:21.219Z,101677.75
2023-05-17T04:03:47.777Z,101673.97
2023-05-17T04:06:14.846Z,101676.34
2023-05-17T04:08:41.397Z,101683.81
2023-05-17T04:11:12.937Z,101682.56
2023-05-17T04:13:40.538Z,101683.44
2023-05-17T04:16:07.936Z,101692.28
2023-05-17T04:18:36.203Z,101693.91
2023-05-17T04:21:03.323Z,101699.00
2023-05-17T04:23:30.326Z,101697.44
2023-05-17T04:25:58.330Z,101699.47
2023-05-17T04:28:25.099Z,101702.50
2023-05-17T04:30:52.188Z,101695.63
2023-05-17T04:33:18.841Z,101706.81
2023-05-17T04:35:45.825Z,101709.34
2023-05-17T04:38:12.509Z,101714.16
2023-05-17T04:40:38.998Z,101719.75
2023-05-17T04:43:05.919Z,101723.47
2023-05-17T04:45:33.392Z,101722.19
2023-05-17T04:47:59.891Z,101721.75
2023-05-17T04:50:26.726Z,101726.47
2023-05-17T04:52:53.173Z,101732.28
2023-05-17T04:55:19.637Z,101729.50
2023-05-17T04:57:46.046Z,101736.53
2023-05-17T05:00:15.238Z,101739.47
2023-05-17T05:02:42.291Z,101738.91
2023-05-17T05:05:11.764Z,101740.13
2023-05-17T05:07:39.738Z,101746.94
2023-05-17T05:10:06.825Z,101747.56
2023-05-17T05:12:33.334Z,101750.28
2023-05-17T05:15:00.993Z,101751.91
2023-05-17T05:17:29.319Z,101759.03
2023-05-17T05:19:55.944Z,101762.00
2023-05-17T05:22:22.454Z,101763.84
2023-05-17T05:24:48.988Z,101766.06
2023-05-17T05:27:15.415Z,101766.22
2023-05-17T05:29:42.586Z,101768.91
2023-05-17T05:32:09.132Z,101772.47
2023-05-17T05:34:35.684Z,101781.50
2023-05-17T05:37:02.119Z,101774.69
2023-05-17T05:39:28.576Z,101784.34
2023-05-17T05:41:55.002Z,101782.78
2023-05-17T05:44:21.650Z,101782.44
2023-05-17T05:46:49.551Z,101786.38
2023-05-17T05:49:16.047Z,101790.56
2023-05-17T05:51:42.480Z,101794.47
2023-05-17T05:54:09.012Z,101794.41
2023-05-17T05:56:35.534Z,101795.72
2023-05-17T05:59:02.290Z,101795.56
2023-05-17T06:01:29.569Z,101801.56
2023-05-17T06:03:56.066Z,101796.53
2023-05-17T06:06:22.591Z,101799.84
2023-05-17T06:08:49.179Z,101807.06
2023-05-17T06:11:15.653Z,101800.59
2023-05-17T06:13:42.072Z,101813.09
2023-05-17T06:16:08.506Z,101808.59
2023-05-17T06:18:35.271Z,101812.09
2023-05-17T06:21:01.819Z,101813.00
2023-05-17T06:23:28.244Z,101826.84
2023-05-17T06:25:54.704Z,101821.97
2023-05-17T06:28:21.137Z,101831.56
2023-05-17T06:30:47.709Z,101827.19
2023-05-17T06:33:14.221Z,101829.03
2023-05-17T06:35:54.958Z,101831.84
2023-05-17T06:38:23.500Z,101829.28
2023-05-17T06:40:54.209Z,101831.25
2023-05-17T06:43:20.660Z,101829.84
2023-05-17T06:45:47.164Z,101829.13
2023-05-17T06:48:13.736Z,101819.69
2023-05-17T06:50:40.336Z,101829.22
2023-05-17T06:53:06.975Z,101825.19
2023-05-17T06:55:33.550Z,101821.84
2023-05-17T06:58:00.414Z,101830.22
2023-05-17T07:00:27.301Z,101832.31
2023-05-17T07:02:54.071Z,101830.63
2023-05-17T07:05:21.820Z,101833.09
2023-05-17T07:07:48.308Z,101838.47
2023-05-17T07:10:14.787Z,101840.16
2023-05-17T07:12:41.216Z,101839.59
2023-05-17T07:15:08.262Z,101839.66
2023-05-17T07:17:34.790Z,101848.38
2023-05-17T07:20:01.438Z,101851.63
2023-05-17T07:22:27.972Z,101852.38
2023-05-17T07:24:54.423Z,101861.25
2023-05-17T07:27:20.906Z,101861.38
2023-05-17T07:29:47.361Z,101865.28
2023-05-17T07:32:13.977Z,101860.66
2023-05-17T07:34:40.452Z,101869.78
2023-05-17T07:37:07.008Z,101863.06
2023-05-17T07:39:33.430Z,101864.66
2023-05-17T07:41:59.942Z,101872.28
2023-05-17T07:44:26.492Z,101869.72
2023-05-17T07:46:52.995Z,101859.59
2023-05-17T07:49:19.552Z,101867.50
2023-05-17T07:51:46.219Z,101865.44
2023-05-17T07:54:27.260Z,101857.00
2023-05-17T07:56:55.222Z,101857.94
2023-05-17T07:59:22.428Z,101869.84
2023-05-17T08:01:48.882Z,101874.13
2023-05-17T08:04:15.816Z,101883.31
2023-05-17T08:06:43.332Z,101881.28
2023-05-17T08:09:11.001Z,101890.22
2023-05-17T08:11:37.725Z,101884.50
2023-05-17T08:14:05.139Z,101884.25
2023-05-17T08:16:31.683Z,101891.16
2023-05-17T08:18:58.289Z,101876.03
2023-05-17T08:21:24.917Z,101874.03
2023-05-17T08:23:51.628Z,101877.09
2023-05-17T08:26:18.854Z,101883.00
2023-05-17T08:28:45.655Z,101881.66
2023-05-17T08:31:12.466Z,101883.38
2023-05-17T08:33:39.073Z,101893.25
2023-05-17T08:36:08.205Z,101881.69
2023-05-17T08:38:35.328Z,101894.78
2023-05-17T08:41:02.958Z,101898.53
2023-05-17T08:43:31.032Z,101897.00
2023-05-17T08:45:58.253Z,101894.91
2023-05-17T08:48:26.425Z,101904.53
2023-05-17T08:50:54.276Z,101892.16
2023-05-17T08:53:20.858Z,101893.19
2023-05-17T08:55:50.675Z,101896.09
2023-05-17T08:58:21.374Z,101899.44
2023-05-17T09:00:49.380Z,101898.16
2023-05-17T09:03:18.336Z,101898.66
2023-05-17T09:05:47.720Z,101902.75
2023-05-17T09:08:14.313Z,101894.56
2023-05-17T09:10:41.547Z,101885.16
2023-05-17T09:13:08.368Z,101893.75
2023-05-17T09:15:34.852Z,101900.38
2023-05-17T09:18:01.916Z,101909.41
2023-05-17T09:20:35.058Z,101907.72
2023-05-17T09:23:01.987Z,101900.25
2023-05-17T09:25:31.758Z,101882.97
2023-05-17T09:28:03.796Z,101878.41
2023-05-17T09:30:31.135Z,101889.31
2023-05-17T09:32:58.164Z,101895.75
2023-05-17T09:35:31.605Z,101893.66
2023-05-17T09:38:06.450Z,101893.84
2023-05-17T09:40:32.934Z,101892.59
2023-05-17T09:42:59.950Z,101890.75
2023-05-17T09:45:26.639Z,101899.91
2023-05-17T09:47:53.766Z,101903.81
2023-05-17T09:50:22.459Z,101894.44
2023-05-17T09:52:50.689Z,101899.53
2023-05-17T09:55:17.348Z,101893.94
2023-05-17T09:57:43.827Z,101884.88
2023-05-17T10:00:12.076Z,101885.13
2023-05-17T10:02:41.030Z,101876.72
2023-05-17T10:05:12.336Z,101888.09
2023-05-17T10:07:39.162Z,101889.47
2023-05-17T10:10:06.657Z,101901.00
2023-05-17T10:12:35.897Z,101888.78
2023-05-17T10:15:02.415Z,101899.78
2023-05-17T10:17:29.977Z,101889.41
2023-05-17T10:19:57.298Z,101881.81
2023-05-17T10:22:24.256Z,101880.72
2023-05-17T10:24:51.797Z,101878.88
2023-05-17T10:27:18.585Z,101874.00
2023-05-17T10:29:47.692Z,101864.75
2023-05-17T10:32:17.307Z,101878.63
2023-05-17T10:34:45.745Z,101869.81
2023-05-17T10:37:14.066Z,101868.84
2023-05-17T10:39:43.534Z,101863.06
2023-05-17T10:42:14.856Z,101861.44
2023-05-17T10:44:42.000Z,101864.75
2023-05-17T10:47:08.844Z,101869.22
2023-05-17T10:49:38.036Z,101869.66
2023-05-17T10:52:18.297Z,101868.22
2023-05-17T10:54:46.617Z,101854.31
2023-05-17T10:57:21.802Z,101856.78
2023-05-17T10:59:59.682Z,101854.56
2023-05-17T11:02:28.180Z,101863.19
2023-05-17T11:04:56.561Z,101858.56
2023-05-17T11:07:29.700Z,101853.00
2023-05-17T11:10:08.471Z,101869.69
2023-05-17T11:12:42.901Z,101865.81
2023-05-17T11:15:14.160Z,101863.66
2023-05-17T11:17:43.987Z,101855.38
2023-05-17T11:20:31.464Z,101865.44
2023-05-17T11:23:00.232Z,101866.06
2023-05-17T11:25:37.355Z,101875.09
2023-05-17T11:28:17.655Z,101860.66
2023-05-17T11:30:51.440Z,101867.81
2023-05-17T11:33:29.852Z,101856.66
2023-05-17T11:36:04.205Z,101861.97
2023-05-17T11:38:32.390Z,101868.66
2023-05-17T11:40:59.778Z,101858.03
2023-05-17T11:43:31.043Z,101848.41
2023-05-17T11:46:01.359Z,101860.13
2023-05-17T11:48:28.060Z,101859.63
2023-05-17T11:50:56.559Z,101855.66
2023-05-17T11:53:25.102Z,101846.44
2023-05-17T11:55:52.237Z,101854.44
2023-05-17T11:58:21.373Z,101852.28
2023-05-17T12:00:52.806Z,101849.56
2023-05-17T12:03:24.706Z,101849.22
2023-05-17T12:06:04.058Z,101838.66
2023-05-17T12:08:31.996Z,101838.16
2023-05-17T12:10:58.613Z,101848.41
2023-05-17T12:13:28.376Z,101857.09
2023-05-17T12:15:57.390Z,101839.19
2023-05-17T12:18:35.376Z,101839.44
2023-05-17T12:21:01.967Z,101841.78
2023-05-17T12:23:32.278Z,101854.19
2023-05-17T12:26:06.125Z,101853.53
2023-05-17T12:28:32.838Z,101866.22
2023-05-17T12:31:02.892Z,101855.09
2023-05-17T12:33:31.447Z,101844.06
2023-05-17T12:35:58.227Z,101852.69
2023-05-17T12:38:27.779Z,101853.88
2023-05-17T12:40:55.042Z,101869.50
2023-05-17T12:43:24.322Z,101859.50
2023-05-17T12:45:52.274Z,101845.19
2023-05-17T12:48:18.981Z,101836.88
2023-05-17T12:50:46.164Z,101834.28
2023-05-17T12:53:12.625Z,101842.84
2023-05-17T12:55:39.102Z,101849.72
2023-05-17T12:58:05.820Z,101845.63
2023-05-17T13:00:32.273Z,101836.19
2023-05-17T13:02:58.838Z,101830.94
2023-05-17T13:05:25.457Z,101826.34
2023-05-17T13:07:51.932Z,101840.88
2023-05-17T13:10:26.193Z,101861.41
2023-05-17T13:12:59.755Z,101867.94
2023-05-17T13:15:28.151Z,101852.22
2023-05-17T13:17:54.640Z,101845.00
2023-05-17T13:20:21.957Z,101834.53
2023-05-17T13:22:49.148Z,101828.06
2023-05-17T13:25:16.087Z,101823.84
2023-05-17T13:27:46.577Z,101823.13
2023-05-17T13:30:13.577Z,101819.97
2023-05-17T13:32:40.567Z,101828.13
2023-05-17T13:35:07.425Z,101836.88
2023-05-17T13:37:34.512Z,101849.47
2023-05-17T13:40:00.950Z,101852.69
2023-05-17T13:42:27.402Z,101832.94
2023-05-17T13:44:53.875Z,101829.09
2023-05-17T13:47:20.337Z,101818.41
2023-05-17T13:49:46.814Z,101812.53
2023-05-17T13:52:13.762Z,101820.56
2023-05-17T13:54:40.335Z,101824.06
2023-05-17T13:57:07.592Z,101828.81
2023-05-17T13:59:34.178Z,101823.13
2023-05-17T14:02:00.586Z,101819.00
2023-05-17T14:04:27.022Z,101828.22
2023-05-17T14:06:55.183Z,101817.63
2023-05-17T14:09:21.917Z,101814.50
2023-05-17T14:11:48.366Z,101814.66
2023-05-17T14:14:14.787Z,101810.31
2023-05-17T14:16:41.438Z,101805.97
2023-05-17T14:19:07.912Z,101809.56
2023-05-17T14:21:34.371Z,101818.75
2023-05-17T14:24:00.867Z,101812.66
2023-05-17T14:26:27.473Z,101812.91
2023-05-17T14:28:54.051Z,101818.19
2023-05-17T14:31:20.933Z,101807.69
2023-05-17T14:33:48.574Z,101811.75
2023-05-17T14:36:15.076Z,101809.59
2023-05-17T14:38:41.590Z,101809.28
2023-05-17T14:41:08.165Z,101811.03
2023-05-17T14:43:34.615Z,101800.47
2023-05-17T14:46:01.495Z,101811.94
2023-05-17T14:48:27.945Z,101806.03
2023-05-17T14:50:54.410Z,101814.56
2023-05-17T14:53:21.005Z,101805.78
2023-05-17T14:55:47.609Z,101818.19
2023-05-17T14:58:14.135Z,101820.38
2023-05-17T15:00:41.905Z,101828.31
2023-05-17T15:03:09.260Z,101825.69
2023-05-17T15:05:36.099Z,101818.72
2023-05-17T15:08:02.556Z,101820.81
2023-05-17T15:10:29.834Z,101827.53
2023-05-17T15:12:56.439Z,101832.38
2023-05-17T15:15:22.885Z,101827.19
2023-05-17T15:17:49.408Z,101829.47
2023-05-17T15:20:16.045Z,101818.06
2023-05-17T15:22:42.534Z,101819.09
2023-05-17T15:25:09.061Z,101818.06
2023-05-17T15:27:35.628Z,101816.50
2023-05-17T15:30:02.084Z,101811.38
2023-05-17T15:32:28.523Z,101809.69
2023-05-17T15:34:55.016Z,101811.28
2023-05-17T15:37:21.516Z,101815.75
2023-05-17T15:39:47.985Z,101812.97
2023-05-17T15:42:14.439Z,101810.28
2023-05-17T15:44:41.022Z,101812.78
2023-05-17T15:47:07.496Z,101817.25
2023-05-17T15:49:34.817Z,101826.63
2023-05-17T15:52:01.451Z,101831.81
2023-05-17T15:54:27.886Z,101828.41
2023-05-17T15:56:54.349Z,101834.88
2023-05-17T15:59:20.834Z,101832.75
2023-05-17T16:01:47.295Z,101831.09
2023-05-17T16:04:13.905Z,101834.69
2023-05-17T16:06:40.989Z,101834.09
2023-05-17T16:09:07.454Z,101829.00
2023-05-17T16:11:33.886Z,101827.34
2023-05-17T16:14:00.386Z,101826.00
2023-05-17T16:16:26.920Z,101830.75
2023-05-17T16:18:53.487Z,101826.97
2023-05-17T16:21:20.035Z,101822.78
2023-05-17T16:23:46.553Z,101827.41
2023-05-17T16:26:13.172Z,101823.06
2023-05-17T16:28:39.736Z,101825.41
2023-05-17T16:31:06.491Z,101829.47
2023-05-17T16:33:32.954Z,101823.88
2023-05-17T16:35:59.417Z,101834.34
2023-05-17T16:38:26.208Z,101834.78
2023-05-17T16:40:52.624Z,101835.25
2023-05-17T16:43:19.045Z,101829.47
2023-05-17T16:45:46.265Z,101832.94
2023-05-17T16:48:13.995Z,101841.75
2023-05-17T16:50:43.538Z,101854.84
2023-05-17T16:53:09.990Z,101846.66
2023-05-17T16:55:36.584Z,101851.03
2023-05-17T16:58:03.317Z,101848.09
2023-05-17T17:00:30.027Z,101851.56
2023-05-17T17:02:58.260Z,101849.94
2023-05-17T17:05:24.770Z,101845.03
2023-05-17T17:07:51.456Z,101845.59
2023-05-17T17:10:17.954Z,101843.16
2023-05-17T17:12:44.383Z,101841.22
2023-05-17T17:15:10.991Z,101844.81
2023-05-17T17:17:37.498Z,101845.03
2023-05-17T17:20:05.544Z,101847.28
2023-05-17T17:22:32.138Z,101843.25
2023-05-17T17:24:58.552Z,101843.66
2023-05-17T17:27:24.960Z,101851.41
2023-05-17T17:29:51.420Z,101855.97
2023-05-17T17:32:17.922Z,101857.00
2023-05-17T17:34:44.404Z,101858.13
2023-05-17T17:37:10.935Z,101857.44
2023-05-17T17:39:37.363Z,101858.31
2023-05-17T17:42:03.888Z,101856.13
2023-05-17T17:44:30.319Z,101855.41
2023-05-17T17:46:56.787Z,101858.94
2023-05-17T17:49:23.322Z,101860.03
2023-05-17T17:51:49.791Z,101858.03
2023-05-17T17:54:16.260Z,101863.22
2023-05-17T17:56:42.701Z,101863.25
2023-05-17T17:59:09.133Z,101861.91
2023-05-17T18:01:37.403Z,101863.94
2023-05-17T18:04:05.198Z,101863.38
2023-05-17T18:06:31.658Z,101866.28
2023-05-17T18:08:58.148Z,101872.19
2023-05-17T18:11:24.560Z,101873.75
2023-05-17T18:13:51.071Z,101883.19
2023-05-17T18:16:17.848Z,101879.97
2023-05-17T18:18:44.400Z,101878.50
2023-05-17T18:21:11.426Z,101887.03
2023-05-17T18:23:37.892Z,101891.56
2023-05-17T18:26:04.394Z,101884.91
2023-05-17T18:28:41.383Z,101887.00
2023-05-17T18:31:09.128Z,101882.13
2023-05-17T18:33:35.568Z,101886.31
2023-05-17T18:36:02.073Z,101891.38
2023-05-17T18:38:28.656Z,101895.56
2023-05-17T18:40:55.059Z,101891.75
2023-05-17T18:43:21.453Z,101889.63
2023-05-17T18:45:47.945Z,101887.81
2023-05-17T18:48:14.386Z,101890.22
2023-05-17T18:50:40.842Z,101892.31
2023-05-17T18:53:07.298Z,101890.59
2023-05-17T18:55:33.785Z,101888.97
2023-05-17T18:58:00.399Z,101897.59
2023-05-17T19:00:26.962Z,101888.28
2023-05-17T19:02:53.598Z,101896.47
2023-05-17T19:05:20.151Z,101895.84
2023-05-17T19:07:46.538Z,101899.97
2023-05-17T19:10:13.100Z,101901.41
2023-05-17T19:12:39.596Z,101902.19
2023-05-17T19:15:06.361Z,101908.66
2023-05-17T19:17:32.934Z,101902.16
2023-05-17T19:19:59.448Z,101905.00
2023-05-17T19:22:25.944Z,101908.41
2023-05-17T19:24:52.376Z,101909.97
2023-05-17T19:27:19.808Z,101916.97
2023-05-17T19:29:47.168Z,101913.44
2023-05-17T19:32:13.717Z,101913.22
2023-05-17T19:34:40.363Z,101916.19
2023-05-17T19:37:07.202Z,101923.25
2023-05-17T19:39:33.646Z,101920.25
2023-05-17T19:42:00.295Z,101919.06
2023-05-17T19:44:26.698Z,101927.13
2023-05-17T19:46:53.274Z,101923.75
2023-05-17T19:49:19.746Z,101931.13
2023-05-17T19:51:46.644Z,101923.38
2023-05-17T19:54:13.044Z,101935.94
2023-05-17T19:56:39.536Z,101927.34
2023-05-17T19:59:06.168Z,101927.63
2023-05-17T20:01:32.655Z,101922.94
2023-05-17T20:03:59.281Z,101932.72
2023-05-17T20:06:25.837Z,101925.53
2023-05-17T20:08:52.305Z,101935.09
2023-05-17T20:11:18.735Z,101934.50
2023-05-17T20:13:45.345Z,101945.47
2023-05-17T20:16:14.564Z,101942.34
2023-05-17T20:18:45.072Z,101946.03
2023-05-17T20:21:15.019Z,101947.09
2023-05-17T20:23:41.633Z,101950.44
2023-05-17T20:26:08.097Z,101951.50
2023-05-17T20:28:34.532Z,101954.84
2023-05-17T20:31:01.044Z,101952.53
2023-05-17T20:33:27.528Z,101955.47
2023-05-17T20:35:54.057Z,101947.94
2023-05-17T20:38:21.473Z,101957.69
2023-05-17T20:40:47.957Z,101947.06
2023-05-17T20:43:14.522Z,101950.66
2023-05-17T20:45:41.044Z,101951.72
2023-05-17T20:48:07.560Z,101949.31
2023-05-17T20:50:34.152Z,101949.03
2023-05-17T20:53:01.083Z,101945.31
2023-05-17T20:55:27.508Z,101944.03
2023-05-17T20:57:53.955Z,101954.97
2023-05-17T21:00:21.085Z,101954.47
2023-05-17T21:02:47.724Z,101945.31
2023-05-17T21:05:14.204Z,101955.47
2023-05-17T21:07:40.653Z,101957.19
2023-05-17T21:10:08.097Z,101957.97
2023-05-17T21:12:35.451Z,101953.84
2023-05-17T21:15:15.676Z,101954.84
2023-05-17T21:17:43.313Z,101960.50
2023-05-17T21:20:10.232Z,101954.34
2023-05-17T21:22:37.372Z,101962.38
2023-05-17T21:25:03.985Z,101956.56
2023-05-17T21:27:30.459Z,101954.25
2023-05-17T21:29:56.888Z,101954.25
2023-05-17T21:32:23.304Z,101957.16
2023-05-17T21:34:51.023Z,101962.47
2023-05-17T21:37:18.964Z,101958.16
2023-05-17T21:39:45.512Z,101965.66
2023-05-17T21:42:11.957Z,101971.84
2023-05-17T21:44:38.366Z,101969.84
2023-05-17T21:47:04.795Z,101969.38
2023-05-17T21:49:31.211Z,101967.84
2023-05-17T21:51:57.622Z,101974.75
2023-05-17T21:54:24.731Z,101974.59
2023-05-17T21:56:51.423Z,101981.63
2023-05-17T21:59:17.835Z,101985.03
2023-05-17T22:01:44.260Z,101973.03
2023-05-17T22:04:10.739Z,101969.06
2023-05-17T22:06:37.344Z,101973.03
2023-05-17T22:09:06.004Z,101974.75
2023-05-17T22:11:32.669Z,101979.06
2023-05-17T22:13:59.075Z,101982.53
2023-05-17T22:16:25.639Z,101975.38
2023-05-17T22:18:52.498Z,101976.59
2023-05-17T22:21:19.533Z,101977.81
2023-05-17T22:23:45.975Z,101969.44
2023-05-17T22:26:12.465Z,101982.56
2023-05-17T22:28:38.891Z,101983.63
2023-05-17T22:31:07.461Z,101978.28
2023-05-17T22:33:35.613Z,101975.56
2023-05-17T22:36:03.601Z,101976.75
2023-05-17T22:38:30.033Z,101981.47
2023-05-17T22:40:56.458Z,101977.50
2023-05-17T22:43:22.852Z,101981.78
2023-05-17T22:45:49.994Z,101982.13
2023-05-17T22:48:16.457Z,101990.00
2023-05-17T22:50:42.938Z,101992.59
2023-05-17T22:53:11.218Z,101989.09
2023-05-17T22:55:37.671Z,102000.06
2023-05-17T22:58:04.104Z,101997.19
2023-05-17T23:00:30.538Z,102003.38
2023-05-17T23:02:57.024Z,102006.16
2023-05-17T23:05:23.555Z,102005.53
2023-05-17T23:07:49.974Z,102002.97
2023-05-17T23:10:16.421Z,102001.72
2023-05-17T23:12:43.105Z,102002.47
2023-05-17T23:15:10.422Z,102004.59
2023-05-17T23:17:39.034Z,102005.50
2023-05-17T23:20:09.841Z,102003.34
2023-05-17T23:22:36.938Z,102007.91
2023-05-17T23:25:03.431Z,102006.72
2023-05-17T23:27:30.295Z,102003.06
2023-05-17T23:29:57.073Z,101996.72
2023-05-17T23:32:23.941Z,101997.78
2023-05-17T23:34:54.030Z,102000.66
2023-05-17T23:37:20.503Z,102011.28
2023-05-17T23:39:46.925Z,102010.06
2023-05-17T23:42:13.348Z,102006.75
2023-05-17T23:44:42.809Z,102007.34
2023-05-17T23:47:12.390Z,102001.28
2023-05-17T23:49:39.089Z,102008.84
2023-05-17T23:52:11.941Z,102007.34
2023-05-17T23:54:39.091Z,101997.44
2023-05-17T23:57:06.751Z,102001.84
2023-05-17T23:59:34.162Z,101999.28
